VJT516 LSZS-LRBM
Flight info
| Callsign | VJT516 |
|---|---|
| Flight time | N/A |
| Altitude | 40000 |
| Route | RESIA DCT MALUG/N0454F390 DCT GOTAR DCT ZURFA DCT SOMET |
| Aircraft | CL60/M-SADE3FGHIJ3J4J7P2RWXY/HB1D1 |
Departure
| Time | 2026-04-23 08:18 |
|---|---|
| Airport | Engadin Airport (LSZS) |
Arrival
| Time | N/A |
|---|---|
| Airport | Maramureș International Airport (LRBM) |
| Time | Latitude | Longitude | Altitude | Speed | Heading |
|---|---|---|---|---|---|
| 2026-04-23 08:18 | 46.47971 | 10.06840 | 17622 ft | 297 kts | 81° |
| 2026-04-23 08:18 | 46.48277 | 10.09813 | 18329 ft | 299 kts | 79° |
| 2026-04-23 08:18 | 46.48584 | 10.12791 | 19051 ft | 301 kts | 80° |
| 2026-04-23 08:18 | 46.48785 | 10.14773 | 19544 ft | 301 kts | 79° |
| 2026-04-23 08:19 | 46.49188 | 10.18753 | 20535 ft | 304 kts | 80° |
| 2026-04-23 08:19 | 46.49493 | 10.21780 | 21288 ft | 307 kts | 80° |
| 2026-04-23 08:19 | 46.49698 | 10.23831 | 21810 ft | 309 kts | 80° |
| 2026-04-23 08:19 | 46.50105 | 10.27909 | 22845 ft | 310 kts | 81° |
| 2026-04-23 08:20 | 46.50308 | 10.29948 | 23353 ft | 311 kts | 80° |
| 2026-04-23 08:20 | 46.50722 | 10.34120 | 24410 ft | 315 kts | 81° |
| 2026-04-23 08:20 | 46.51029 | 10.37233 | 25213 ft | 317 kts | 81° |
| 2026-04-23 08:20 | 46.51339 | 10.40387 | 26017 ft | 318 kts | 81° |
| 2026-04-23 08:21 | 46.51648 | 10.43547 | 26818 ft | 318 kts | 81° |
| 2026-04-23 08:21 | 46.51855 | 10.45668 | 27352 ft | 318 kts | 81° |
| 2026-04-23 08:21 | 46.52261 | 10.49843 | 28394 ft | 316 kts | 82° |
| 2026-04-23 08:21 | 46.52570 | 10.53017 | 29159 ft | 315 kts | 82° |
| 2026-04-23 08:22 | 46.52873 | 10.56163 | 29912 ft | 313 kts | 82° |
| 2026-04-23 08:22 | 46.53175 | 10.59301 | 30640 ft | 311 kts | 82° |
| 2026-04-23 08:22 | 46.53473 | 10.62400 | 31314 ft | 309 kts | 82° |
| 2026-04-23 08:22 | 46.53767 | 10.65475 | 31957 ft | 308 kts | 82° |
| 2026-04-23 08:23 | 46.54058 | 10.68524 | 32578 ft | 306 kts | 83° |
| 2026-04-23 08:23 | 46.54345 | 10.71537 | 33175 ft | 305 kts | 83° |
| 2026-04-23 08:23 | 46.54634 | 10.74578 | 33748 ft | 303 kts | 83° |
| 2026-04-23 08:23 | 46.54919 | 10.77584 | 34294 ft | 302 kts | 83° |
| 2026-04-23 08:24 | 46.55203 | 10.80592 | 34785 ft | 301 kts | 82° |
| 2026-04-23 08:24 | 46.55391 | 10.82589 | 35081 ft | 300 kts | 82° |
| 2026-04-23 08:24 | 46.55765 | 10.86572 | 35636 ft | 299 kts | 82° |
| 2026-04-23 08:24 | 46.56040 | 10.89509 | 36016 ft | 298 kts | 82° |
| 2026-04-23 08:25 | 46.56317 | 10.92483 | 36378 ft | 298 kts | 82° |
| 2026-04-23 08:25 | 46.56594 | 10.95460 | 36756 ft | 298 kts | 81° |
| 2026-04-23 08:25 | 46.56779 | 10.97455 | 36990 ft | 298 kts | 81° |
| 2026-04-23 08:25 | 46.57148 | 11.01436 | 37453 ft | 298 kts | 81° |
| 2026-04-23 08:26 | 46.57422 | 11.04409 | 37788 ft | 298 kts | 81° |
| 2026-04-23 08:26 | 46.57696 | 11.07393 | 38067 ft | 299 kts | 81° |
| 2026-04-23 08:26 | 46.57969 | 11.10374 | 38361 ft | 299 kts | 81° |
| 2026-04-23 08:26 | 46.58241 | 11.13347 | 38650 ft | 300 kts | 81° |
| 2026-04-23 08:27 | 46.58423 | 11.15354 | 38839 ft | 300 kts | 81° |
| 2026-04-23 08:27 | 46.58787 | 11.19363 | 39115 ft | 301 kts | 80° |
| 2026-04-23 08:27 | 46.59058 | 11.22355 | 39339 ft | 302 kts | 80° |
| 2026-04-23 08:27 | 46.59329 | 11.25362 | 39579 ft | 302 kts | 80° |
| 2026-04-23 08:28 | 46.59603 | 11.28411 | 39791 ft | 303 kts | 80° |
| 2026-04-23 08:28 | 46.59872 | 11.31416 | 39982 ft | 303 kts | 80° |
| 2026-04-23 08:28 | 46.60145 | 11.34473 | 40148 ft | 304 kts | 81° |
| 2026-04-23 08:28 | 46.60413 | 11.37487 | 40290 ft | 305 kts | 81° |
| 2026-04-23 08:29 | 46.60967 | 11.43731 | 40304 ft | 317 kts | 81° |
| 2026-04-23 08:29 | 46.61534 | 11.50179 | 40306 ft | 330 kts | 80° |
| 2026-04-23 08:30 | 46.62022 | 11.55756 | 40284 ft | 340 kts | 81° |
| 2026-04-23 08:30 | 46.62722 | 11.63847 | 40283 ft | 353 kts | 80° |
| 2026-04-23 08:31 | 46.63338 | 11.71029 | 40299 ft | 364 kts | 81° |
| 2026-04-23 08:31 | 46.63965 | 11.78387 | 40307 ft | 373 kts | 81° |
| 2026-04-23 08:32 | 46.64607 | 11.85980 | 40284 ft | 385 kts | 81° |
| 2026-04-23 08:32 | 46.65257 | 11.93748 | 40278 ft | 393 kts | 81° |
| 2026-04-23 08:33 | 46.65913 | 12.01648 | 40299 ft | 399 kts | 81° |
| 2026-04-23 08:33 | 46.66581 | 12.09757 | 40298 ft | 405 kts | 82° |
| 2026-04-23 08:34 | 46.67245 | 12.17895 | 40255 ft | 411 kts | 82° |
| 2026-04-23 08:34 | 46.67917 | 12.26205 | 40244 ft | 415 kts | 81° |
| 2026-04-23 08:35 | 46.68585 | 12.34536 | 40307 ft | 417 kts | 82° |
| 2026-04-23 08:35 | 46.69250 | 12.42910 | 40269 ft | 417 kts | 82° |
| 2026-04-23 08:36 | 46.69910 | 12.51281 | 40295 ft | 418 kts | 81° |
| 2026-04-23 08:36 | 46.70569 | 12.59652 | 40255 ft | 419 kts | 81° |
| 2026-04-23 08:37 | 46.71366 | 12.68040 | 40213 ft | 419 kts | 81° |
| 2026-04-23 08:37 | 46.72162 | 12.76367 | 40241 ft | 416 kts | 81° |
| 2026-04-23 08:38 | 46.72951 | 12.84684 | 40265 ft | 416 kts | 81° |
| 2026-04-23 08:38 | 46.73730 | 12.92958 | 40277 ft | 415 kts | 81° |
| 2026-04-23 08:39 | 46.74509 | 13.01298 | 40283 ft | 417 kts | 81° |
| 2026-04-23 08:39 | 46.75289 | 13.09718 | 40296 ft | 417 kts | 81° |
| 2026-04-23 08:40 | 46.76053 | 13.18032 | 40279 ft | 415 kts | 81° |
| 2026-04-23 08:40 | 46.76810 | 13.26355 | 40291 ft | 415 kts | 81° |
| 2026-04-23 08:41 | 46.77564 | 13.34685 | 40263 ft | 415 kts | 81° |
| 2026-04-23 08:41 | 46.78311 | 13.43024 | 40236 ft | 416 kts | 81° |
| 2026-04-23 08:42 | 46.79050 | 13.51340 | 40204 ft | 416 kts | 81° |
| 2026-04-23 08:42 | 46.79783 | 13.59669 | 40218 ft | 415 kts | 81° |
| 2026-04-23 08:43 | 46.80512 | 13.68008 | 40220 ft | 414 kts | 81° |
| 2026-04-23 08:43 | 46.81229 | 13.76293 | 40241 ft | 415 kts | 81° |
| 2026-04-23 08:44 | 46.81947 | 13.84652 | 40216 ft | 416 kts | 81° |
| 2026-04-23 08:44 | 46.82655 | 13.92969 | 40219 ft | 415 kts | 81° |
| 2026-04-23 08:45 | 46.83359 | 14.01318 | 40209 ft | 414 kts | 81° |
| 2026-04-23 08:45 | 46.84055 | 14.09650 | 40214 ft | 415 kts | 81° |
| 2026-04-23 08:46 | 46.84747 | 14.18002 | 40217 ft | 415 kts | 81° |
| 2026-04-23 08:46 | 46.85432 | 14.26343 | 40220 ft | 415 kts | 81° |
| 2026-04-23 08:47 | 46.86109 | 14.34667 | 40218 ft | 416 kts | 81° |
| 2026-04-23 08:47 | 46.86785 | 14.43048 | 40215 ft | 415 kts | 81° |
| 2026-04-23 08:48 | 46.87450 | 14.51383 | 40208 ft | 414 kts | 81° |
| 2026-04-23 08:48 | 46.88109 | 14.59706 | 40222 ft | 414 kts | 81° |
| 2026-04-23 08:49 | 46.88763 | 14.68049 | 40213 ft | 415 kts | 82° |
| 2026-04-23 08:49 | 46.89411 | 14.76393 | 40223 ft | 415 kts | 82° |
| 2026-04-23 08:50 | 46.90056 | 14.84779 | 40209 ft | 415 kts | 82° |
| 2026-04-23 08:50 | 46.90693 | 14.93148 | 40194 ft | 416 kts | 82° |
| 2026-04-23 08:51 | 46.91325 | 15.01528 | 40175 ft | 417 kts | 82° |
| 2026-04-23 08:51 | 46.91946 | 15.09861 | 40201 ft | 416 kts | 82° |
| 2026-04-23 08:52 | 46.92569 | 15.18279 | 40208 ft | 415 kts | 82° |
| 2026-04-23 08:52 | 46.93182 | 15.26664 | 40209 ft | 415 kts | 82° |
| 2026-04-23 08:53 | 46.93785 | 15.35000 | 40212 ft | 415 kts | 82° |
| 2026-04-23 08:53 | 46.94386 | 15.43389 | 40210 ft | 415 kts | 82° |
| 2026-04-23 08:54 | 46.94980 | 15.51742 | 40206 ft | 415 kts | 81° |
| 2026-04-23 08:54 | 46.95572 | 15.60165 | 40205 ft | 415 kts | 82° |
| 2026-04-23 08:55 | 46.96154 | 15.68537 | 40210 ft | 415 kts | 82° |
| 2026-04-23 08:55 | 46.96729 | 15.76902 | 40195 ft | 416 kts | 82° |
| 2026-04-23 08:56 | 46.97300 | 15.85297 | 40195 ft | 416 kts | 82° |
| 2026-04-23 08:56 | 46.97864 | 15.93693 | 40199 ft | 415 kts | 82° |
| 2026-04-23 08:57 | 46.98422 | 16.02083 | 40195 ft | 415 kts | 82° |
| 2026-04-23 08:57 | 46.98973 | 16.10461 | 40195 ft | 415 kts | 82° |
| 2026-04-23 08:58 | 46.99520 | 16.18886 | 40192 ft | 415 kts | 82° |
| 2026-04-23 08:58 | 47.00297 | 16.27195 | 40193 ft | 414 kts | 77° |
| 2026-04-23 08:59 | 47.01356 | 16.35453 | 40188 ft | 414 kts | 77° |
| 2026-04-23 08:59 | 47.02403 | 16.43716 | 40188 ft | 415 kts | 77° |
| 2026-04-23 09:00 | 47.03445 | 16.52019 | 40191 ft | 415 kts | 77° |
| 2026-04-23 09:00 | 47.04478 | 16.60310 | 40185 ft | 416 kts | 77° |